sensor_id;sensor_type;location;lat;lon;timestamp;temperature;humidity
16247;DHT22;8231;50.866;7.944;2024-02-21T00:00:45;7.70;99.90
16247;DHT22;8231;50.866;7.944;2024-02-21T00:03:13;7.70;99.90
16247;DHT22;8231;50.866;7.944;2024-02-21T00:05:41;7.00;99.90
16247;DHT22;8231;50.866;7.944;2024-02-21T00:08:09;7.00;99.90
16247;DHT22;8231;50.866;7.944;2024-02-21T00:10:38;7.00;99.90
16247;DHT22;8231;50.866;7.944;2024-02-21T00:13:06;7.00;99.90
16247;DHT22;8231;50.866;7.944;2024-02-21T00:15:37;7.50;99.90
16247;DHT22;8231;50.866;7.944;2024-02-21T00:18:05;7.10;99.90
16247;DHT22;8231;50.866;7.944;2024-02-21T00:20:33;7.00;99.90
16247;DHT22;8231;50.866;7.944;2024-02-21T00:23:01;7.00;99.90
16247;DHT22;8231;50.866;7.944;2024-02-21T00:25:30;7.00;99.90
16247;DHT22;8231;50.866;7.944;2024-02-21T00:27:58;7.30;99.90
16247;DHT22;8231;50.866;7.944;2024-02-21T00:30:26;7.00;99.90
16247;DHT22;8231;50.866;7.944;2024-02-21T00:32:56;7.00;99.90
16247;DHT22;8231;50.866;7.944;2024-02-21T00:35:24;7.40;99.90
16247;DHT22;8231;50.866;7.944;2024-02-21T00:37:53;7.00;99.90
16247;DHT22;8231;50.866;7.944;2024-02-21T00:40:21;7.00;99.90
16247;DHT22;8231;50.866;7.944;2024-02-21T00:42:49;7.10;99.90
16247;DHT22;8231;50.866;7.944;2024-02-21T00:45:18;7.10;99.90
16247;DHT22;8231;50.866;7.944;2024-02-21T00:47:46;7.10;99.90
16247;DHT22;8231;50.866;7.944;2024-02-21T00:50:15;7.10;99.90
16247;DHT22;8231;50.866;7.944;2024-02-21T00:52:43;7.00;99.90
16247;DHT22;8231;50.866;7.944;2024-02-21T00:55:12;7.10;99.90
16247;DHT22;8231;50.866;7.944;2024-02-21T00:57:40;7.10;99.90
16247;DHT22;8231;50.866;7.944;2024-02-21T01:00:09;7.10;99.90
16247;DHT22;8231;50.866;7.944;2024-02-21T01:02:38;7.10;99.90
16247;DHT22;8231;50.866;7.944;2024-02-21T01:05:06;7.10;99.90
16247;DHT22;8231;50.866;7.944;2024-02-21T01:07:36;7.10;99.90
16247;DHT22;8231;50.866;7.944;2024-02-21T01:10:06;7.70;99.90
16247;DHT22;8231;50.866;7.944;2024-02-21T01:12:35;7.10;99.90
16247;DHT22;8231;50.866;7.944;2024-02-21T01:15:04;7.10;99.90
16247;DHT22;8231;50.866;7.944;2024-02-21T01:17:32;7.10;99.90
16247;DHT22;8231;50.866;7.944;2024-02-21T01:20:00;7.10;99.90
16247;DHT22;8231;50.866;7.944;2024-02-21T01:22:28;7.10;99.90
16247;DHT22;8231;50.866;7.944;2024-02-21T01:24:58;7.10;99.90
16247;DHT22;8231;50.866;7.944;2024-02-21T01:27:26;7.10;99.90
16247;DHT22;8231;50.866;7.944;2024-02-21T01:29:55;7.10;99.90
16247;DHT22;8231;50.866;7.944;2024-02-21T01:32:23;7.10;99.90
16247;DHT22;8231;50.866;7.944;2024-02-21T01:34:51;7.00;99.90
16247;DHT22;8231;50.866;7.944;2024-02-21T01:37:20;7.10;99.90
16247;DHT22;8231;50.866;7.944;2024-02-21T01:39:48;7.10;99.90
16247;DHT22;8231;50.866;7.944;2024-02-21T01:42:18;7.10;99.90
16247;DHT22;8231;50.866;7.944;2024-02-21T01:44:46;7.10;99.90
16247;DHT22;8231;50.866;7.944;2024-02-21T01:47:15;7.10;99.90
16247;DHT22;8231;50.866;7.944;2024-02-21T01:49:43;7.10;99.90
16247;DHT22;8231;50.866;7.944;2024-02-21T01:52:14;7.60;99.90
16247;DHT22;8231;50.866;7.944;2024-02-21T01:54:44;7.10;99.90
16247;DHT22;8231;50.866;7.944;2024-02-21T01:57:12;7.00;99.90
16247;DHT22;8231;50.866;7.944;2024-02-21T01:59:42;7.10;99.90
16247;DHT22;8231;50.866;7.944;2024-02-21T02:02:11;7.10;99.90
16247;DHT22;8231;50.866;7.944;2024-02-21T02:04:39;7.00;99.90
16247;DHT22;8231;50.866;7.944;2024-02-21T02:07:07;7.00;99.90
16247;DHT22;8231;50.866;7.944;2024-02-21T02:09:36;7.00;99.90
16247;DHT22;8231;50.866;7.944;2024-02-21T02:12:05;7.00;99.90
16247;DHT22;8231;50.866;7.944;2024-02-21T02:14:33;7.00;99.90
16247;DHT22;8231;50.866;7.944;2024-02-21T02:17:03;7.00;99.90
16247;DHT22;8231;50.866;7.944;2024-02-21T02:19:32;7.00;99.90
16247;DHT22;8231;50.866;7.944;2024-02-21T02:22:06;7.00;99.90
16247;DHT22;8231;50.866;7.944;2024-02-21T02:24:38;7.00;99.90
16247;DHT22;8231;50.866;7.944;2024-02-21T02:27:06;7.10;99.90
16247;DHT22;8231;50.866;7.944;2024-02-21T02:29:34;7.00;99.90
16247;DHT22;8231;50.866;7.944;2024-02-21T02:32:03;7.00;99.90
16247;DHT22;8231;50.866;7.944;2024-02-21T02:34:31;7.00;99.90
16247;DHT22;8231;50.866;7.944;2024-02-21T02:37:00;7.00;99.90
16247;DHT22;8231;50.866;7.944;2024-02-21T02:39:28;7.00;99.90
16247;DHT22;8231;50.866;7.944;2024-02-21T02:41:58;6.90;99.90
16247;DHT22;8231;50.866;7.944;2024-02-21T02:44:26;6.90;99.90
16247;DHT22;8231;50.866;7.944;2024-02-21T02:46:54;7.30;99.90
16247;DHT22;8231;50.866;7.944;2024-02-21T02:49:23;6.90;99.90
16247;DHT22;8231;50.866;7.944;2024-02-21T02:51:51;7.00;99.90
16247;DHT22;8231;50.866;7.944;2024-02-21T02:54:19;7.00;99.90
16247;DHT22;8231;50.866;7.944;2024-02-21T02:56:49;7.00;99.90
16247;DHT22;8231;50.866;7.944;2024-02-21T02:59:19;6.90;99.90
16247;DHT22;8231;50.866;7.944;2024-02-21T03:01:47;7.00;99.90
16247;DHT22;8231;50.866;7.944;2024-02-21T03:04:16;7.20;99.90
16247;DHT22;8231;50.866;7.944;2024-02-21T03:06:44;7.00;99.90
16247;DHT22;8231;50.866;7.944;2024-02-21T03:09:12;7.00;99.90
16247;DHT22;8231;50.866;7.944;2024-02-21T03:11:42;6.90;99.90
16247;DHT22;8231;50.866;7.944;2024-02-21T03:14:11;7.10;99.90
16247;DHT22;8231;50.866;7.944;2024-02-21T03:16:40;7.00;99.90
16247;DHT22;8231;50.866;7.944;2024-02-21T03:19:09;6.90;99.90
16247;DHT22;8231;50.866;7.944;2024-02-21T03:21:38;7.20;99.90
16247;DHT22;8231;50.866;7.944;2024-02-21T03:24:07;6.90;99.90
16247;DHT22;8231;50.866;7.944;2024-02-21T03:26:35;7.00;99.90
16247;DHT22;8231;50.866;7.944;2024-02-21T03:29:03;7.00;99.90
16247;DHT22;8231;50.866;7.944;2024-02-21T03:31:31;7.00;99.90
16247;DHT22;8231;50.866;7.944;2024-02-21T03:34:01;6.90;99.90
16247;DHT22;8231;50.866;7.944;2024-02-21T03:36:29;6.90;99.90
16247;DHT22;8231;50.866;7.944;2024-02-21T03:38:58;6.90;99.90
16247;DHT22;8231;50.866;7.944;2024-02-21T03:41:27;7.60;99.90
16247;DHT22;8231;50.866;7.944;2024-02-21T03:43:55;6.90;99.90
16247;DHT22;8231;50.866;7.944;2024-02-21T03:46:24;6.90;99.90
16247;DHT22;8231;50.866;7.944;2024-02-21T03:48:52;7.10;99.90
16247;DHT22;8231;50.866;7.944;2024-02-21T03:51:22;7.00;99.90
16247;DHT22;8231;50.866;7.944;2024-02-21T03:53:50;7.00;99.90
16247;DHT22;8231;50.866;7.944;2024-02-21T03:56:19;6.90;99.90
16247;DHT22;8231;50.866;7.944;2024-02-21T03:58:47;6.90;99.90
16247;DHT22;8231;50.866;7.944;2024-02-21T04:01:15;6.90;99.90
16247;DHT22;8231;50.866;7.944;2024-02-21T04:03:44;6.90;99.90
16247;DHT22;8231;50.866;7.944;2024-02-21T04:06:12;6.90;99.90
16247;DHT22;8231;50.866;7.944;2024-02-21T04:08:42;6.90;99.90
16247;DHT22;8231;50.866;7.944;2024-02-21T04:11:10;7.00;99.90
16247;DHT22;8231;50.866;7.944;2024-02-21T04:13:38;7.50;99.90
16247;DHT22;8231;50.866;7.944;2024-02-21T04:16:06;6.90;99.90
16247;DHT22;8231;50.866;7.944;2024-02-21T04:18:35;7.00;99.90
16247;DHT22;8231;50.866;7.944;2024-02-21T04:21:03;6.90;99.90
16247;DHT22;8231;50.866;7.944;2024-02-21T04:23:31;6.90;99.90
16247;DHT22;8231;50.866;7.944;2024-02-21T04:26:01;6.90;99.90
16247;DHT22;8231;50.866;7.944;2024-02-21T04:28:29;6.90;99.90
16247;DHT22;8231;50.866;7.944;2024-02-21T04:30:57;6.90;99.90
16247;DHT22;8231;50.866;7.944;2024-02-21T04:33:25;6.90;99.90
16247;DHT22;8231;50.866;7.944;2024-02-21T04:35:54;7.20;99.90
16247;DHT22;8231;50.866;7.944;2024-02-21T04:38:22;6.80;99.90
16247;DHT22;8231;50.866;7.944;2024-02-21T04:40:51;6.90;99.90
16247;DHT22;8231;50.866;7.944;2024-02-21T04:43:20;6.90;99.90
16247;DHT22;8231;50.866;7.944;2024-02-21T04:45:48;6.80;99.90
16247;DHT22;8231;50.866;7.944;2024-02-21T04:48:17;6.80;99.90
16247;DHT22;8231;50.866;7.944;2024-02-21T04:50:45;6.80;99.90
16247;DHT22;8231;50.866;7.944;2024-02-21T04:53:13;6.80;99.90
16247;DHT22;8231;50.866;7.944;2024-02-21T04:55:43;6.90;99.90
16247;DHT22;8231;50.866;7.944;2024-02-21T04:58:11;6.80;99.90
16247;DHT22;8231;50.866;7.944;2024-02-21T05:00:40;6.80;99.90
16247;DHT22;8231;50.866;7.944;2024-02-21T05:03:09;6.80;99.90
16247;DHT22;8231;50.866;7.944;2024-02-21T05:05:38;6.80;99.90
16247;DHT22;8231;50.866;7.944;2024-02-21T05:08:06;6.80;99.90
16247;DHT22;8231;50.866;7.944;2024-02-21T05:10:34;6.80;99.90
16247;DHT22;8231;50.866;7.944;2024-02-21T05:13:03;6.80;99.90
16247;DHT22;8231;50.866;7.944;2024-02-21T05:15:31;6.80;99.90
16247;DHT22;8231;50.866;7.944;2024-02-21T05:18:01;6.80;99.90
16247;DHT22;8231;50.866;7.944;2024-02-21T05:20:30;6.80;99.90
16247;DHT22;8231;50.866;7.944;2024-02-21T05:22:58;6.90;99.90
16247;DHT22;8231;50.866;7.944;2024-02-21T05:25:26;7.50;99.90
16247;DHT22;8231;50.866;7.944;2024-02-21T05:27:55;6.80;99.90
16247;DHT22;8231;50.866;7.944;2024-02-21T05:30:28;6.80;99.90
16247;DHT22;8231;50.866;7.944;2024-02-21T05:32:56;6.80;99.90
16247;DHT22;8231;50.866;7.944;2024-02-21T05:35:27;6.90;99.90
16247;DHT22;8231;50.866;7.944;2024-02-21T05:37:55;6.90;99.90
16247;DHT22;8231;50.866;7.944;2024-02-21T05:40:24;6.80;99.90
16247;DHT22;8231;50.866;7.944;2024-02-21T05:42:52;6.80;99.90
16247;DHT22;8231;50.866;7.944;2024-02-21T05:45:20;6.80;99.90
16247;DHT22;8231;50.866;7.944;2024-02-21T05:47:48;7.20;99.90
16247;DHT22;8231;50.866;7.944;2024-02-21T05:50:17;6.80;99.90
16247;DHT22;8231;50.866;7.944;2024-02-21T05:52:46;6.80;99.90
16247;DHT22;8231;50.866;7.944;2024-02-21T05:55:15;6.80;99.90
16247;DHT22;8231;50.866;7.944;2024-02-21T05:57:43;6.80;99.90
16247;DHT22;8231;50.866;7.944;2024-02-21T06:00:12;6.80;99.90
16247;DHT22;8231;50.866;7.944;2024-02-21T06:02:40;6.80;99.90
16247;DHT22;8231;50.866;7.944;2024-02-21T06:05:09;6.80;99.90
16247;DHT22;8231;50.866;7.944;2024-02-21T06:07:38;6.80;99.90
16247;DHT22;8231;50.866;7.944;2024-02-21T06:10:09;6.80;99.90
16247;DHT22;8231;50.866;7.944;2024-02-21T06:12:37;6.80;99.90
16247;DHT22;8231;50.866;7.944;2024-02-21T06:15:06;6.80;99.90
16247;DHT22;8231;50.866;7.944;2024-02-21T06:17:34;6.80;99.90
16247;DHT22;8231;50.866;7.944;2024-02-21T06:20:03;6.80;99.90
16247;DHT22;8231;50.866;7.944;2024-02-21T06:22:32;6.80;99.90
16247;DHT22;8231;50.866;7.944;2024-02-21T06:25:00;7.20;99.90
16247;DHT22;8231;50.866;7.944;2024-02-21T06:27:30;6.80;99.90
16247;DHT22;8231;50.866;7.944;2024-02-21T06:29:59;6.80;99.90
16247;DHT22;8231;50.866;7.944;2024-02-21T06:32:27;6.70;99.90
16247;DHT22;8231;50.866;7.944;2024-02-21T06:34:55;6.70;99.90
16247;DHT22;8231;50.866;7.944;2024-02-21T06:37:23;6.70;99.90
16247;DHT22;8231;50.866;7.944;2024-02-21T06:39:52;6.70;99.90
16247;DHT22;8231;50.866;7.944;2024-02-21T06:42:20;6.70;99.90
16247;DHT22;8231;50.866;7.944;2024-02-21T06:44:50;6.70;99.90
16247;DHT22;8231;50.866;7.944;2024-02-21T06:47:19;6.90;99.90
16247;DHT22;8231;50.866;7.944;2024-02-21T06:49:49;6.70;99.90
16247;DHT22;8231;50.866;7.944;2024-02-21T06:52:18;6.70;99.90
16247;DHT22;8231;50.866;7.944;2024-02-21T06:54:47;6.70;99.90
16247;DHT22;8231;50.866;7.944;2024-02-21T06:57:16;6.70;99.90
16247;DHT22;8231;50.866;7.944;2024-02-21T06:59:44;6.70;99.90
16247;DHT22;8231;50.866;7.944;2024-02-21T07:02:13;6.70;99.90
16247;DHT22;8231;50.866;7.944;2024-02-21T07:04:42;6.70;99.90
16247;DHT22;8231;50.866;7.944;2024-02-21T07:07:11;6.80;99.90
16247;DHT22;8231;50.866;7.944;2024-02-21T07:09:39;6.80;99.90
16247;DHT22;8231;50.866;7.944;2024-02-21T07:12:08;6.80;99.90
16247;DHT22;8231;50.866;7.944;2024-02-21T07:14:37;6.80;99.90
16247;DHT22;8231;50.866;7.944;2024-02-21T07:17:05;6.80;99.90
16247;DHT22;8231;50.866;7.944;2024-02-21T07:19:34;6.90;99.90
16247;DHT22;8231;50.866;7.944;2024-02-21T07:22:03;6.90;99.90
16247;DHT22;8231;50.866;7.944;2024-02-21T07:24:31;6.90;99.90
16247;DHT22;8231;50.866;7.944;2024-02-21T07:26:59;7.00;99.90
16247;DHT22;8231;50.866;7.944;2024-02-21T07:29:31;7.00;99.90
16247;DHT22;8231;50.866;7.944;2024-02-21T07:31:59;7.00;99.90
16247;DHT22;8231;50.866;7.944;2024-02-21T07:34:28;7.50;99.90
16247;DHT22;8231;50.866;7.944;2024-02-21T07:36:58;7.10;99.90
16247;DHT22;8231;50.866;7.944;2024-02-21T07:39:26;7.70;99.90
16247;DHT22;8231;50.866;7.944;2024-02-21T07:41:55;7.20;99.90
16247;DHT22;8231;50.866;7.944;2024-02-21T07:44:23;7.70;99.90
16247;DHT22;8231;50.866;7.944;2024-02-21T07:46:52;7.30;99.90
16247;DHT22;8231;50.866;7.944;2024-02-21T07:49:20;7.30;99.90
16247;DHT22;8231;50.866;7.944;2024-02-21T07:51:49;7.30;99.90
16247;DHT22;8231;50.866;7.944;2024-02-21T07:54:18;7.30;99.90
16247;DHT22;8231;50.866;7.944;2024-02-21T07:56:47;7.40;99.90
16247;DHT22;8231;50.866;7.944;2024-02-21T07:59:15;7.70;99.90
16247;DHT22;8231;50.866;7.944;2024-02-21T08:01:43;7.50;99.90
16247;DHT22;8231;50.866;7.944;2024-02-21T08:04:12;8.10;99.90
16247;DHT22;8231;50.866;7.944;2024-02-21T08:06:41;7.60;99.90
16247;DHT22;8231;50.866;7.944;2024-02-21T08:09:10;7.60;99.90
16247;DHT22;8231;50.866;7.944;2024-02-21T08:11:39;7.80;99.90
16247;DHT22;8231;50.866;7.944;2024-02-21T08:14:08;7.70;99.90
16247;DHT22;8231;50.866;7.944;2024-02-21T08:16:36;7.80;99.90
16247;DHT22;8231;50.866;7.944;2024-02-21T08:19:04;7.80;99.90
16247;DHT22;8231;50.866;7.944;2024-02-21T08:21:33;7.90;99.90
16247;DHT22;8231;50.866;7.944;2024-02-21T08:24:02;7.90;99.90
16247;DHT22;8231;50.866;7.944;2024-02-21T08:26:30;7.90;99.90
16247;DHT22;8231;50.866;7.944;2024-02-21T08:28:59;7.90;99.90
16247;DHT22;8231;50.866;7.944;2024-02-21T08:31:28;8.00;99.90
16247;DHT22;8231;50.866;7.944;2024-02-21T08:33:59;7.80;99.90
16247;DHT22;8231;50.866;7.944;2024-02-21T08:36:30;8.20;99.90
16247;DHT22;8231;50.866;7.944;2024-02-21T08:39:00;7.80;99.90
16247;DHT22;8231;50.866;7.944;2024-02-21T08:41:31;8.40;99.90
16247;DHT22;8231;50.866;7.944;2024-02-21T08:44:22;7.70;99.90
16247;DHT22;8231;50.866;7.944;2024-02-21T08:46:50;7.80;99.90
16247;DHT22;8231;50.866;7.944;2024-02-21T08:49:18;8.20;99.90
16247;DHT22;8231;50.866;7.944;2024-02-21T08:51:47;7.70;99.90
16247;DHT22;8231;50.866;7.944;2024-02-21T08:54:15;7.80;99.90
16247;DHT22;8231;50.866;7.944;2024-02-21T08:56:44;7.80;99.90
16247;DHT22;8231;50.866;7.944;2024-02-21T08:59:12;7.80;99.90
16247;DHT22;8231;50.866;7.944;2024-02-21T09:01:44;7.80;99.90
16247;DHT22;8231;50.866;7.944;2024-02-21T09:04:12;7.90;99.90
16247;DHT22;8231;50.866;7.944;2024-02-21T09:06:40;8.00;99.90
16247;DHT22;8231;50.866;7.944;2024-02-21T09:09:09;8.40;99.90
16247;DHT22;8231;50.866;7.944;2024-02-21T09:11:38;7.90;99.90
16247;DHT22;8231;50.866;7.944;2024-02-21T09:14:07;7.90;99.90
16247;DHT22;8231;50.866;7.944;2024-02-21T09:16:35;8.00;99.90
16247;DHT22;8231;50.866;7.944;2024-02-21T09:19:05;8.00;99.90
16247;DHT22;8231;50.866;7.944;2024-02-21T09:21:34;8.00;99.90
16247;DHT22;8231;50.866;7.944;2024-02-21T09:24:02;8.50;99.90
16247;DHT22;8231;50.866;7.944;2024-02-21T09:26:30;8.10;99.90
16247;DHT22;8231;50.866;7.944;2024-02-21T09:28:58;8.10;99.90
16247;DHT22;8231;50.866;7.944;2024-02-21T09:31:27;8.40;99.90
16247;DHT22;8231;50.866;7.944;2024-02-21T09:33:55;8.00;99.90
16247;DHT22;8231;50.866;7.944;2024-02-21T09:36:25;8.20;99.90
16247;DHT22;8231;50.866;7.944;2024-02-21T09:38:53;8.20;99.90
16247;DHT22;8231;50.866;7.944;2024-02-21T09:41:25;8.30;99.90
16247;DHT22;8231;50.866;7.944;2024-02-21T09:43:54;8.30;99.90
16247;DHT22;8231;50.866;7.944;2024-02-21T09:46:28;8.40;99.90
16247;DHT22;8231;50.866;7.944;2024-02-21T09:49:21;8.30;99.90
16247;DHT22;8231;50.866;7.944;2024-02-21T09:51:55;8.30;99.90
16247;DHT22;8231;50.866;7.944;2024-02-21T09:54:25;8.30;99.90
16247;DHT22;8231;50.866;7.944;2024-02-21T09:56:53;8.40;99.90
16247;DHT22;8231;50.866;7.944;2024-02-21T09:59:22;8.40;99.90
16247;DHT22;8231;50.866;7.944;2024-02-21T10:01:52;8.80;99.90
16247;DHT22;8231;50.866;7.944;2024-02-21T10:04:20;8.60;99.90
16247;DHT22;8231;50.866;7.944;2024-02-21T10:06:49;9.20;99.90
16247;DHT22;8231;50.866;7.944;2024-02-21T10:09:23;9.00;99.90
16247;DHT22;8231;50.866;7.944;2024-02-21T10:11:54;9.10;99.90
16247;DHT22;8231;50.866;7.944;2024-02-21T10:14:23;9.10;99.90
16247;DHT22;8231;50.866;7.944;2024-02-21T10:16:57;9.30;99.90
16247;DHT22;8231;50.866;7.944;2024-02-21T10:19:26;9.30;99.90
16247;DHT22;8231;50.866;7.944;2024-02-21T10:22:02;9.40;99.90
16247;DHT22;8231;50.866;7.944;2024-02-21T10:24:32;9.30;99.90
16247;DHT22;8231;50.866;7.944;2024-02-21T10:27:05;9.60;99.90
16247;DHT22;8231;50.866;7.944;2024-02-21T10:29:35;9.40;99.90
16247;DHT22;8231;50.866;7.944;2024-02-21T10:32:06;9.50;99.90
16247;DHT22;8231;50.866;7.944;2024-02-21T10:34:35;9.60;99.90
16247;DHT22;8231;50.866;7.944;2024-02-21T10:37:04;9.70;99.90
16247;DHT22;8231;50.866;7.944;2024-02-21T10:39:36;9.80;99.90
16247;DHT22;8231;50.866;7.944;2024-02-21T10:42:05;10.20;99.90
16247;DHT22;8231;50.866;7.944;2024-02-21T10:44:37;10.00;99.90
16247;DHT22;8231;50.866;7.944;2024-02-21T10:47:08;10.10;99.90
16247;DHT22;8231;50.866;7.944;2024-02-21T10:49:38;10.20;99.90
16247;DHT22;8231;50.866;7.944;2024-02-21T10:52:13;10.70;99.90
16247;DHT22;8231;50.866;7.944;2024-02-21T10:54:48;10.60;99.90
16247;DHT22;8231;50.866;7.944;2024-02-21T10:57:19;10.30;99.90
16247;DHT22;8231;50.866;7.944;2024-02-21T10:59:49;10.50;99.90
16247;DHT22;8231;50.866;7.944;2024-02-21T11:02:18;10.50;99.90
16247;DHT22;8231;50.866;7.944;2024-02-21T11:04:47;10.50;99.90
16247;DHT22;8231;50.866;7.944;2024-02-21T11:07:17;10.60;99.90
16247;DHT22;8231;50.866;7.944;2024-02-21T11:09:52;10.70;99.90
16247;DHT22;8231;50.866;7.944;2024-02-21T11:12:22;10.80;99.90
16247;DHT22;8231;50.866;7.944;2024-02-21T11:14:51;11.20;99.90
16247;DHT22;8231;50.866;7.944;2024-02-21T11:17:20;11.10;99.90
16247;DHT22;8231;50.866;7.944;2024-02-21T11:19:51;11.00;99.90
16247;DHT22;8231;50.866;7.944;2024-02-21T11:22:20;11.00;99.90
16247;DHT22;8231;50.866;7.944;2024-02-21T11:24:51;11.00;99.90
16247;DHT22;8231;50.866;7.944;2024-02-21T11:27:21;11.00;99.90
16247;DHT22;8231;50.866;7.944;2024-02-21T11:29:55;11.00;99.90
16247;DHT22;8231;50.866;7.944;2024-02-21T11:32:25;11.20;99.90
16247;DHT22;8231;50.866;7.944;2024-02-21T11:34:55;11.30;99.90
16247;DHT22;8231;50.866;7.944;2024-02-21T11:37:25;11.40;99.90
16247;DHT22;8231;50.866;7.944;2024-02-21T11:39:56;11.40;99.90
16247;DHT22;8231;50.866;7.944;2024-02-21T11:42:25;11.30;99.90
16247;DHT22;8231;50.866;7.944;2024-02-21T11:44:53;11.30;99.90
16247;DHT22;8231;50.866;7.944;2024-02-21T11:47:24;11.20;99.90
16247;DHT22;8231;50.866;7.944;2024-02-21T11:49:52;11.30;99.90
16247;DHT22;8231;50.866;7.944;2024-02-21T11:52:24;11.40;99.90
16247;DHT22;8231;50.866;7.944;2024-02-21T11:54:54;11.40;99.90
16247;DHT22;8231;50.866;7.944;2024-02-21T11:57:26;11.40;99.90
16247;DHT22;8231;50.866;7.944;2024-02-21T11:59:54;11.30;99.90
16247;DHT22;8231;50.866;7.944;2024-02-21T12:02:27;11.50;99.90
16247;DHT22;8231;50.866;7.944;2024-02-21T12:04:56;11.30;99.90
16247;DHT22;8231;50.866;7.944;2024-02-21T12:07:25;11.30;99.90
16247;DHT22;8231;50.866;7.944;2024-02-21T12:09:58;11.20;99.90
16247;DHT22;8231;50.866;7.944;2024-02-21T12:12:29;11.10;99.90
16247;DHT22;8231;50.866;7.944;2024-02-21T12:14:57;11.10;99.90
16247;DHT22;8231;50.866;7.944;2024-02-21T12:17:25;11.40;99.90
16247;DHT22;8231;50.866;7.944;2024-02-21T12:19:54;11.50;99.90
16247;DHT22;8231;50.866;7.944;2024-02-21T12:22:22;11.60;99.90
16247;DHT22;8231;50.866;7.944;2024-02-21T12:24:52;11.70;99.90
16247;DHT22;8231;50.866;7.944;2024-02-21T12:27:21;11.90;99.90
16247;DHT22;8231;50.866;7.944;2024-02-21T12:29:52;12.40;99.90
16247;DHT22;8231;50.866;7.944;2024-02-21T12:32:20;12.40;99.90
16247;DHT22;8231;50.866;7.944;2024-02-21T12:34:48;12.40;99.90
16247;DHT22;8231;50.866;7.944;2024-02-21T12:37:22;12.40;99.90
16247;DHT22;8231;50.866;7.944;2024-02-21T12:39:50;12.20;99.90
16247;DHT22;8231;50.866;7.944;2024-02-21T12:42:18;12.10;99.90
16247;DHT22;8231;50.866;7.944;2024-02-21T12:44:46;12.00;99.90
16247;DHT22;8231;50.866;7.944;2024-02-21T12:47:16;11.80;99.90
16247;DHT22;8231;50.866;7.944;2024-02-21T12:49:46;11.80;99.90
16247;DHT22;8231;50.866;7.944;2024-02-21T12:52:14;11.80;99.90
16247;DHT22;8231;50.866;7.944;2024-02-21T12:54:43;11.80;99.90
16247;DHT22;8231;50.866;7.944;2024-02-21T12:57:11;11.80;99.90
16247;DHT22;8231;50.866;7.944;2024-02-21T12:59:39;11.90;99.90
16247;DHT22;8231;50.866;7.944;2024-02-21T13:02:07;11.70;99.90
16247;DHT22;8231;50.866;7.944;2024-02-21T13:04:38;11.70;99.90
16247;DHT22;8231;50.866;7.944;2024-02-21T13:07:08;11.60;99.90
16247;DHT22;8231;50.866;7.944;2024-02-21T13:09:36;11.60;99.90
16247;DHT22;8231;50.866;7.944;2024-02-21T13:12:05;11.50;99.90
16247;DHT22;8231;50.866;7.944;2024-02-21T13:14:34;11.60;99.90
16247;DHT22;8231;50.866;7.944;2024-02-21T13:17:04;11.70;99.90
16247;DHT22;8231;50.866;7.944;2024-02-21T13:19:32;11.90;99.90
16247;DHT22;8231;50.866;7.944;2024-02-21T13:22:02;12.00;99.90
16247;DHT22;8231;50.866;7.944;2024-02-21T13:24:31;12.30;99.90
16247;DHT22;8231;50.866;7.944;2024-02-21T13:26:59;12.40;99.90
16247;DHT22;8231;50.866;7.944;2024-02-21T13:29:28;12.70;99.90
16247;DHT22;8231;50.866;7.944;2024-02-21T13:31:56;13.00;99.90
16247;DHT22;8231;50.866;7.944;2024-02-21T13:34:24;13.20;99.90
16247;DHT22;8231;50.866;7.944;2024-02-21T13:36:53;13.40;99.90
16247;DHT22;8231;50.866;7.944;2024-02-21T13:39:22;13.60;99.90
16247;DHT22;8231;50.866;7.944;2024-02-21T13:41:51;13.50;99.90
16247;DHT22;8231;50.866;7.944;2024-02-21T13:44:19;13.70;99.90
16247;DHT22;8231;50.866;7.944;2024-02-21T13:46:47;13.50;99.90
16247;DHT22;8231;50.866;7.944;2024-02-21T13:49:16;13.50;99.90
16247;DHT22;8231;50.866;7.944;2024-02-21T13:51:44;13.40;99.90
16247;DHT22;8231;50.866;7.944;2024-02-21T13:54:13;13.40;99.90
16247;DHT22;8231;50.866;7.944;2024-02-21T13:56:45;13.10;99.90
16247;DHT22;8231;50.866;7.944;2024-02-21T13:59:13;12.90;99.90
16247;DHT22;8231;50.866;7.944;2024-02-21T14:01:41;12.80;99.90
16247;DHT22;8231;50.866;7.944;2024-02-21T14:04:10;12.80;99.90
16247;DHT22;8231;50.866;7.944;2024-02-21T14:06:39;12.60;99.90
16247;DHT22;8231;50.866;7.944;2024-02-21T14:09:11;12.90;99.90
16247;DHT22;8231;50.866;7.944;2024-02-21T14:11:39;12.50;99.90
16247;DHT22;8231;50.866;7.944;2024-02-21T14:14:10;12.50;99.90
16247;DHT22;8231;50.866;7.944;2024-02-21T14:16:38;12.30;99.90
16247;DHT22;8231;50.866;7.944;2024-02-21T14:19:06;12.50;99.90
16247;DHT22;8231;50.866;7.944;2024-02-21T14:21:35;12.40;99.90
16247;DHT22;8231;50.866;7.944;2024-02-21T14:24:04;12.20;99.90
16247;DHT22;8231;50.866;7.944;2024-02-21T14:26:32;12.00;99.90
16247;DHT22;8231;50.866;7.944;2024-02-21T14:29:02;12.00;99.90
16247;DHT22;8231;50.866;7.944;2024-02-21T14:31:33;11.90;99.90
16247;DHT22;8231;50.866;7.944;2024-02-21T14:34:01;12.20;99.90
16247;DHT22;8231;50.866;7.944;2024-02-21T14:36:31;11.90;99.90
16247;DHT22;8231;50.866;7.944;2024-02-21T14:39:00;11.80;99.90
16247;DHT22;8231;50.866;7.944;2024-02-21T14:41:28;11.70;99.90
16247;DHT22;8231;50.866;7.944;2024-02-21T14:43:56;11.70;99.90
16247;DHT22;8231;50.866;7.944;2024-02-21T14:46:30;11.60;99.90
16247;DHT22;8231;50.866;7.944;2024-02-21T14:49:01;11.70;99.90
16247;DHT22;8231;50.866;7.944;2024-02-21T14:51:30;11.80;99.90
16247;DHT22;8231;50.866;7.944;2024-02-21T14:53:58;11.70;99.90
16247;DHT22;8231;50.866;7.944;2024-02-21T14:56:27;12.00;99.90
16247;DHT22;8231;50.866;7.944;2024-02-21T14:58:55;11.70;99.90
16247;DHT22;8231;50.866;7.944;2024-02-21T15:01:36;11.60;99.90
16247;DHT22;8231;50.866;7.944;2024-02-21T15:04:06;11.60;99.90
16247;DHT22;8231;50.866;7.944;2024-02-21T15:06:35;11.60;99.90
16247;DHT22;8231;50.866;7.944;2024-02-21T15:09:04;11.50;99.90
16247;DHT22;8231;50.866;7.944;2024-02-21T15:11:35;11.40;99.90
16247;DHT22;8231;50.866;7.944;2024-02-21T15:14:03;11.40;99.90
16247;DHT22;8231;50.866;7.944;2024-02-21T15:16:32;11.20;99.90
16247;DHT22;8231;50.866;7.944;2024-02-21T15:19:00;11.10;99.90
16247;DHT22;8231;50.866;7.944;2024-02-21T15:21:32;11.10;99.90
16247;DHT22;8231;50.866;7.944;2024-02-21T15:24:05;11.20;99.90
16247;DHT22;8231;50.866;7.944;2024-02-21T15:26:36;11.20;99.90
16247;DHT22;8231;50.866;7.944;2024-02-21T15:29:04;11.20;99.90
16247;DHT22;8231;50.866;7.944;2024-02-21T15:31:33;11.20;99.90
16247;DHT22;8231;50.866;7.944;2024-02-21T15:34:01;11.10;99.90
16247;DHT22;8231;50.866;7.944;2024-02-21T15:36:31;11.10;99.90
16247;DHT22;8231;50.866;7.944;2024-02-21T15:38:59;11.10;99.90
16247;DHT22;8231;50.866;7.944;2024-02-21T15:41:29;11.20;99.90
16247;DHT22;8231;50.866;7.944;2024-02-21T15:43:58;11.10;99.90
16247;DHT22;8231;50.866;7.944;2024-02-21T15:46:26;11.20;99.90
16247;DHT22;8231;50.866;7.944;2024-02-21T15:48:54;11.10;99.90
16247;DHT22;8231;50.866;7.944;2024-02-21T15:51:23;11.10;99.90
16247;DHT22;8231;50.866;7.944;2024-02-21T15:53:52;11.10;99.90
16247;DHT22;8231;50.866;7.944;2024-02-21T15:56:21;11.30;99.90
16247;DHT22;8231;50.866;7.944;2024-02-21T15:58:50;11.00;99.90
16247;DHT22;8231;50.866;7.944;2024-02-21T16:01:18;10.90;99.90
16247;DHT22;8231;50.866;7.944;2024-02-21T16:03:47;10.80;99.90
16247;DHT22;8231;50.866;7.944;2024-02-21T16:06:15;10.90;99.90
16247;DHT22;8231;50.866;7.944;2024-02-21T16:08:44;10.70;99.90